createdAt,value
2022-08-28T00:00:45.020Z,80.30
2022-08-28T00:03:14.662Z,80.40
2022-08-28T00:05:43.139Z,80.40
2022-08-28T00:08:14.937Z,80.90
2022-08-28T00:10:43.678Z,80.40
2022-08-28T00:13:18.551Z,80.40
2022-08-28T00:15:48.751Z,80.50
2022-08-28T00:18:16.611Z,80.90
2022-08-28T00:20:44.668Z,81.20
2022-08-28T00:23:11.546Z,81.50
2022-08-28T00:25:39.689Z,81.70
2022-08-28T00:28:10.404Z,81.70
2022-08-28T00:30:48.310Z,81.80
2022-08-28T00:33:33.802Z,80.20
2022-08-28T00:36:02.468Z,81.40
2022-08-28T00:38:31.052Z,81.40
2022-08-28T00:41:03.936Z,81.70
2022-08-28T00:43:46.026Z,81.90
2022-08-28T00:46:24.034Z,81.70
2022-08-28T00:48:51.074Z,81.80
2022-08-28T00:51:38.722Z,81.80
2022-08-28T00:54:08.250Z,81.80
2022-08-28T00:56:38.547Z,81.90
2022-08-28T00:59:10.663Z,82.00
2022-08-28T01:01:41.530Z,82.00
2022-08-28T01:04:11.604Z,82.10
2022-08-28T01:06:38.754Z,80.60
2022-08-28T01:09:06.439Z,81.80
2022-08-28T01:11:34.056Z,82.60
2022-08-28T01:14:03.802Z,82.20
2022-08-28T01:16:33.256Z,82.50
2022-08-28T01:19:04.454Z,82.60
2022-08-28T01:21:50.671Z,82.60
2022-08-28T01:24:19.994Z,82.20
2022-08-28T01:26:47.283Z,82.30
2022-08-28T01:29:14.524Z,82.40
2022-08-28T01:31:42.146Z,82.10
2022-08-28T01:34:13.062Z,82.40
2022-08-28T01:36:41.103Z,82.20
2022-08-28T01:39:14.950Z,82.20
2022-08-28T01:41:46.367Z,82.20
2022-08-28T01:44:17.907Z,82.60
2022-08-28T01:46:46.339Z,82.70
2022-08-28T01:49:13.593Z,82.80
2022-08-28T01:51:41.494Z,82.60
2022-08-28T01:54:10.561Z,82.60
2022-08-28T01:56:40.741Z,82.60
2022-08-28T01:59:09.904Z,82.60
2022-08-28T02:01:37.638Z,82.80
2022-08-28T02:04:05.420Z,83.00
2022-08-28T02:06:33.940Z,83.20
2022-08-28T02:09:01.164Z,83.20
2022-08-28T02:11:32.768Z,83.30
2022-08-28T02:14:02.737Z,83.20
2022-08-28T02:16:29.871Z,83.10
2022-08-28T02:18:56.778Z,83.00
2022-08-28T02:21:24.442Z,83.10
2022-08-28T02:23:52.344Z,83.30
2022-08-28T02:26:20.889Z,83.50
2022-08-28T02:28:48.405Z,83.60
2022-08-28T02:31:15.595Z,83.40
2022-08-28T02:33:44.964Z,83.40
2022-08-28T02:36:15.262Z,83.20
2022-08-28T02:38:44.210Z,83.00
2022-08-28T02:41:13.145Z,83.60
2022-08-28T02:43:40.666Z,83.20
2022-08-28T02:46:07.707Z,83.00
2022-08-28T02:48:38.359Z,83.20
2022-08-28T02:51:11.654Z,83.50
2022-08-28T02:53:39.196Z,83.50
2022-08-28T02:56:07.475Z,83.80
2022-08-28T02:58:35.388Z,84.10
2022-08-28T03:01:06.945Z,83.50
2022-08-28T03:03:34.347Z,83.40
2022-08-28T03:06:03.815Z,83.40
2022-08-28T03:08:32.220Z,83.30
2022-08-28T03:11:00.407Z,83.40
2022-08-28T03:13:28.223Z,83.50
2022-08-28T03:15:56.360Z,83.40
2022-08-28T03:18:26.078Z,83.50
2022-08-28T03:20:55.528Z,83.60
2022-08-28T03:23:26.411Z,83.60
2022-08-28T03:25:53.117Z,83.70
2022-08-28T03:28:20.569Z,82.50
2022-08-28T03:30:48.209Z,83.60
2022-08-28T03:33:15.322Z,83.90
2022-08-28T03:35:42.357Z,84.00
2022-08-28T03:38:11.659Z,84.10
2022-08-28T03:40:45.397Z,84.20
2022-08-28T03:43:18.188Z,84.00
2022-08-28T03:46:01.451Z,84.00
2022-08-28T03:48:33.473Z,83.70
2022-08-28T03:51:00.969Z,84.20
2022-08-28T03:53:29.945Z,84.20
2022-08-28T03:55:58.004Z,84.30
2022-08-28T03:58:25.627Z,84.40
2022-08-28T04:00:52.806Z,84.50
2022-08-28T04:03:21.524Z,84.20
2022-08-28T04:05:48.512Z,84.20
2022-08-28T04:08:20.632Z,84.30
2022-08-28T04:10:48.733Z,84.10
2022-08-28T04:13:19.634Z,84.20
2022-08-28T04:15:55.623Z,84.00
2022-08-28T04:18:22.483Z,82.80
2022-08-28T04:21:03.105Z,84.20
2022-08-28T04:23:30.589Z,83.20
2022-08-28T04:25:58.020Z,83.90
2022-08-28T04:28:25.912Z,84.10
2022-08-28T04:30:54.814Z,84.30
2022-08-28T04:33:26.807Z,84.30
2022-08-28T04:35:54.245Z,84.00
2022-08-28T04:38:21.776Z,84.40
2022-08-28T04:40:48.709Z,84.50
2022-08-28T04:43:15.574Z,84.70
2022-08-28T04:45:46.082Z,84.80
2022-08-28T04:48:14.492Z,84.50
2022-08-28T04:50:47.766Z,84.70
2022-08-28T04:53:17.734Z,84.50
2022-08-28T04:55:53.603Z,84.70
2022-08-28T04:58:24.029Z,84.60
2022-08-28T05:00:53.674Z,84.40
2022-08-28T05:03:22.044Z,84.20
2022-08-28T05:05:54.259Z,84.20
2022-08-28T05:08:26.894Z,84.00
2022-08-28T05:10:55.080Z,84.30
2022-08-28T05:13:23.340Z,84.50
2022-08-28T05:15:52.355Z,84.50
2022-08-28T05:18:23.879Z,84.70
2022-08-28T05:20:50.820Z,84.60
2022-08-28T05:23:17.699Z,84.80
2022-08-28T05:25:48.327Z,84.60
2022-08-28T05:28:17.246Z,84.50
2022-08-28T05:30:45.182Z,84.60
2022-08-28T05:33:14.969Z,84.70
2022-08-28T05:35:45.793Z,84.60
2022-08-28T05:38:13.877Z,84.80
2022-08-28T05:40:49.409Z,83.40
2022-08-28T05:43:18.372Z,84.40
2022-08-28T05:45:45.291Z,85.00
2022-08-28T05:48:12.377Z,85.10
2022-08-28T05:50:43.764Z,85.30
2022-08-28T05:53:15.404Z,85.50
2022-08-28T05:55:42.255Z,85.40
2022-08-28T05:58:28.077Z,85.30
2022-08-28T06:01:06.489Z,85.10
2022-08-28T06:03:34.599Z,85.20
2022-08-28T06:06:04.615Z,85.20
2022-08-28T06:08:32.901Z,85.30
2022-08-28T06:11:02.199Z,85.40
2022-08-28T06:13:31.217Z,85.70
2022-08-28T06:15:58.912Z,86.00
2022-08-28T06:18:26.782Z,85.90
2022-08-28T06:20:54.334Z,86.20
2022-08-28T06:23:23.946Z,86.50
2022-08-28T06:25:52.422Z,86.50
2022-08-28T06:28:25.668Z,86.60
2022-08-28T06:31:18.536Z,86.00
2022-08-28T06:33:42.432Z,86.00
2022-08-28T06:36:09.322Z,85.80
2022-08-28T06:38:36.193Z,85.80
2022-08-28T06:41:11.222Z,85.80
2022-08-28T06:43:38.088Z,85.20
2022-08-28T06:46:05.631Z,85.60
2022-08-28T06:48:32.775Z,85.70
2022-08-28T06:51:00.278Z,85.90
2022-08-28T06:53:33.537Z,85.90
2022-08-28T06:56:26.157Z,85.90
2022-08-28T06:58:56.792Z,84.60
2022-08-28T07:01:32.547Z,86.10
2022-08-28T07:04:05.874Z,85.50
2022-08-28T07:06:40.145Z,85.60
2022-08-28T07:09:13.322Z,84.60
2022-08-28T07:11:43.743Z,85.30
2022-08-28T07:14:10.787Z,85.70
2022-08-28T07:16:39.859Z,86.10
2022-08-28T07:19:10.571Z,86.20
2022-08-28T07:21:41.893Z,86.20
2022-08-28T07:24:11.653Z,86.40
2022-08-28T07:26:41.551Z,86.20
2022-08-28T07:29:10.128Z,85.90
2022-08-28T07:31:52.733Z,85.60
2022-08-28T07:34:27.103Z,85.20
2022-08-28T07:36:56.190Z,85.00
2022-08-28T07:39:23.101Z,84.50
2022-08-28T07:41:50.328Z,84.20
2022-08-28T07:44:35.605Z,84.00
2022-08-28T07:47:06.003Z,84.00
2022-08-28T07:49:34.729Z,83.40
2022-08-28T07:52:02.438Z,83.90
2022-08-28T07:54:29.454Z,84.00
2022-08-28T07:56:56.451Z,84.00
2022-08-28T07:59:23.643Z,83.80
2022-08-28T08:01:52.252Z,83.70
2022-08-28T08:04:23.046Z,83.20
2022-08-28T08:06:57.583Z,82.60
2022-08-28T08:09:26.278Z,82.20
2022-08-28T08:11:54.945Z,81.70
2022-08-28T08:14:22.496Z,82.00
2022-08-28T08:16:49.888Z,82.00
2022-08-28T08:19:17.466Z,81.80
2022-08-28T08:21:53.136Z,81.70
2022-08-28T08:24:26.740Z,81.60
2022-08-28T08:27:00.196Z,81.70
2022-08-28T08:29:31.772Z,81.30
2022-08-28T08:32:06.196Z,81.20
2022-08-28T08:34:41.522Z,81.80
2022-08-28T08:37:10.440Z,82.10
2022-08-28T08:39:38.149Z,83.10
2022-08-28T08:42:19.235Z,83.20
2022-08-28T08:44:48.511Z,83.40
2022-08-28T08:47:40.012Z,84.10
2022-08-28T08:50:21.060Z,83.50
2022-08-28T08:53:28.423Z,82.20
2022-08-28T08:55:57.859Z,83.00
2022-08-28T08:58:37.843Z,84.30
2022-08-28T09:01:44.473Z,84.10
2022-08-28T09:04:52.318Z,83.40
2022-08-28T09:07:53.562Z,82.90
2022-08-28T09:10:20.621Z,83.20
2022-08-28T09:13:51.156Z,84.10
2022-08-28T09:16:31.662Z,83.20
2022-08-28T09:19:00.600Z,84.20
2022-08-28T09:21:32.952Z,85.30
2022-08-28T09:24:11.067Z,85.50
2022-08-28T09:26:40.205Z,85.20
2022-08-28T09:29:25.251Z,85.90
2022-08-28T09:31:52.383Z,85.90
2022-08-28T09:34:26.006Z,86.00
2022-08-28T09:36:56.267Z,85.90
2022-08-28T09:39:24.754Z,85.90
2022-08-28T09:42:16.040Z,85.80
2022-08-28T09:45:20.585Z,85.60
2022-08-28T09:47:58.902Z,83.70
2022-08-28T09:50:34.683Z,84.20
2022-08-28T09:53:11.540Z,85.20
2022-08-28T09:55:41.447Z,84.70
2022-08-28T09:58:09.214Z,85.40
2022-08-28T10:00:43.245Z,85.30
2022-08-28T10:03:31.007Z,85.40
2022-08-28T10:06:11.022Z,84.90
2022-08-28T10:09:04.864Z,85.40
2022-08-28T10:11:57.170Z,85.50
2022-08-28T10:15:04.026Z,85.30
2022-08-28T10:18:17.435Z,84.20
2022-08-28T10:21:22.037Z,84.50
2022-08-28T10:24:55.256Z,84.40
2022-08-28T10:28:09.332Z,84.80
2022-08-28T10:30:53.590Z,84.50
2022-08-28T10:33:37.522Z,85.50
2022-08-28T10:36:34.828Z,85.00
2022-08-28T10:39:10.498Z,85.20
2022-08-28T10:42:03.112Z,86.10
2022-08-28T10:45:06.968Z,86.00
2022-08-28T10:47:39.378Z,85.50
2022-08-28T10:50:21.412Z,86.30
2022-08-28T10:53:06.295Z,85.50
2022-08-28T10:55:56.696Z,85.80
2022-08-28T10:58:27.478Z,86.40
2022-08-28T11:01:06.909Z,87.30
2022-08-28T11:03:44.557Z,85.90
2022-08-28T11:06:42.141Z,87.10
2022-08-28T11:09:30.167Z,87.10
2022-08-28T11:12:10.132Z,87.20
2022-08-28T11:14:48.332Z,88.30
2022-08-28T11:17:30.546Z,88.40
2022-08-28T11:20:17.805Z,89.00
2022-08-28T11:22:55.552Z,88.50
2022-08-28T11:25:50.159Z,89.20
2022-08-28T11:28:26.087Z,87.90
2022-08-28T11:30:59.149Z,87.30
2022-08-28T11:33:55.454Z,86.70
2022-08-28T11:36:22.758Z,86.60
2022-08-28T11:38:53.108Z,88.80
2022-08-28T11:41:27.219Z,88.10
2022-08-28T11:44:14.893Z,89.30
2022-08-28T11:46:55.357Z,87.70
2022-08-28T11:49:32.049Z,87.30
2022-08-28T11:52:36.701Z,87.40
2022-08-28T11:55:15.714Z,86.00
2022-08-28T11:58:26.052Z,86.80
2022-08-28T12:01:08.525Z,87.50
2022-08-28T12:03:58.161Z,86.20
2022-08-28T12:07:08.582Z,86.90
2022-08-28T12:09:42.529Z,86.50
2022-08-28T12:12:21.481Z,87.80
2022-08-28T12:14:48.249Z,86.20
2022-08-28T12:17:29.148Z,87.70
2022-08-28T12:20:10.339Z,87.80
2022-08-28T12:22:50.283Z,84.90
2022-08-28T12:25:59.812Z,85.50
2022-08-28T12:28:44.083Z,85.90
2022-08-28T12:31:44.240Z,87.30
2022-08-28T12:34:29.149Z,87.80
2022-08-28T12:37:03.408Z,86.50
2022-08-28T12:39:34.311Z,86.10
2022-08-28T12:42:03.499Z,87.10
2022-08-28T12:44:33.744Z,86.40
2022-08-28T12:47:01.009Z,85.90
2022-08-28T12:49:37.029Z,85.80
2022-08-28T12:52:16.627Z,84.80
2022-08-28T12:54:47.525Z,85.20
2022-08-28T12:57:21.398Z,87.20
2022-08-28T12:59:54.948Z,84.80
2022-08-28T13:02:31.799Z,86.00
2022-08-28T13:05:09.190Z,86.10
2022-08-28T13:07:45.362Z,84.20
2022-08-28T13:10:44.407Z,85.40
2022-08-28T13:13:22.378Z,82.80
2022-08-28T13:16:01.583Z,83.90
2022-08-28T13:18:50.224Z,85.70
2022-08-28T13:21:32.652Z,84.70
2022-08-28T13:24:22.049Z,86.60
2022-08-28T13:27:22.500Z,87.20
2022-08-28T13:30:26.820Z,83.70
2022-08-28T13:33:21.105Z,86.10
2022-08-28T13:35:48.912Z,85.90
2022-08-28T13:38:19.758Z,87.30
2022-08-28T13:40:58.729Z,87.00
2022-08-28T13:43:30.687Z,87.10
2022-08-28T13:45:57.962Z,86.20
2022-08-28T13:48:27.649Z,86.40
2022-08-28T13:51:07.069Z,85.70
2022-08-28T13:53:38.480Z,82.80
2022-08-28T13:56:05.956Z,86.50
2022-08-28T13:58:32.937Z,85.70
2022-08-28T14:01:00.664Z,85.30
2022-08-28T14:03:37.787Z,83.90
2022-08-28T14:06:11.507Z,84.00
2022-08-28T14:08:40.883Z,83.00
2022-08-28T14:11:13.115Z,82.90
2022-08-28T14:13:47.434Z,82.70
2022-08-28T14:16:24.604Z,83.10
2022-08-28T14:18:52.858Z,82.90
2022-08-28T14:21:20.932Z,82.60
2022-08-28T14:23:47.858Z,82.70
2022-08-28T14:26:14.699Z,83.70
2022-08-28T14:28:42.319Z,84.90
2022-08-28T14:31:14.267Z,86.30
2022-08-28T14:33:45.029Z,87.30
2022-08-28T14:36:25.271Z,88.00
2022-08-28T14:38:54.535Z,80.70
2022-08-28T14:41:23.558Z,90.00
2022-08-28T14:43:51.077Z,92.60
2022-08-28T14:46:24.588Z,92.70
2022-08-28T14:48:51.858Z,89.30
2022-08-28T14:51:19.031Z,83.60
2022-08-28T14:53:45.844Z,79.40
2022-08-28T14:56:12.931Z,77.70
2022-08-28T14:58:39.888Z,77.90
2022-08-28T15:01:07.203Z,77.60
2022-08-28T15:03:34.393Z,76.80
2022-08-28T15:06:05.417Z,76.40
2022-08-28T15:08:33.313Z,76.60
2022-08-28T15:11:06.260Z,77.20
2022-08-28T15:13:33.541Z,76.70
2022-08-28T15:16:05.533Z,76.00
2022-08-28T15:18:45.819Z,76.10
2022-08-28T15:21:21.295Z,77.40
2022-08-28T15:23:53.753Z,75.90
2022-08-28T15:26:23.130Z,76.20
2022-08-28T15:28:51.359Z,77.30
2022-08-28T15:31:18.984Z,77.30
2022-08-28T15:33:45.939Z,77.30
2022-08-28T15:36:13.138Z,76.60
2022-08-28T15:38:59.007Z,76.20
2022-08-28T15:41:25.928Z,76.60
2022-08-28T15:44:00.402Z,77.60
2022-08-28T15:46:33.696Z,77.60
2022-08-28T15:49:04.045Z,80.20
2022-08-28T15:51:35.916Z,81.00
2022-08-28T15:54:03.044Z,83.90
2022-08-28T15:56:30.001Z,86.70
2022-08-28T15:58:56.829Z,90.70
2022-08-28T16:01:23.879Z,91.80
2022-08-28T16:03:50.913Z,91.40
2022-08-28T16:06:20.847Z,91.50
2022-08-28T16:08:49.988Z,91.80
2022-08-28T16:11:23.022Z,92.20
2022-08-28T16:13:51.481Z,87.10
2022-08-28T16:16:18.749Z,89.00
2022-08-28T16:18:45.792Z,86.80
2022-08-28T16:21:13.334Z,83.30
2022-08-28T16:23:41.452Z,80.00
2022-08-28T16:26:09.722Z,79.00
2022-08-28T16:28:38.235Z,76.20
2022-08-28T16:31:07.799Z,74.50
2022-08-28T16:33:46.425Z,72.80
2022-08-28T16:36:15.216Z,74.30
2022-08-28T16:38:45.826Z,72.60
2022-08-28T16:41:21.088Z,68.90
2022-08-28T16:43:49.213Z,63.40
2022-08-28T16:46:21.218Z,67.10
2022-08-28T16:48:49.018Z,66.90
2022-08-28T16:51:17.747Z,66.20
2022-08-28T16:53:45.883Z,66.70
2022-08-28T16:56:17.106Z,67.10
2022-08-28T16:58:44.994Z,67.30
2022-08-28T17:01:14.004Z,67.90
2022-08-28T17:03:42.267Z,66.80
2022-08-28T17:06:39.438Z,66.50
2022-08-28T17:09:06.703Z,66.30
2022-08-28T17:11:33.744Z,66.10
2022-08-28T17:14:00.647Z,66.70
2022-08-28T17:16:31.385Z,66.70
2022-08-28T17:18:59.490Z,66.90
2022-08-28T17:21:45.290Z,67.20
2022-08-28T17:24:12.636Z,68.20
2022-08-28T17:26:41.739Z,69.10
2022-08-28T17:29:09.058Z,69.70
2022-08-28T17:31:36.845Z,70.40
2022-08-28T17:34:07.376Z,71.20
2022-08-28T17:36:36.337Z,71.70
2022-08-28T17:39:08.418Z,70.00
2022-08-28T17:41:35.653Z,72.20
2022-08-28T17:44:05.303Z,72.50
2022-08-28T17:46:37.819Z,72.50
2022-08-28T17:49:07.502Z,73.10
2022-08-28T17:51:42.264Z,73.30
2022-08-28T17:54:24.551Z,73.90
2022-08-28T17:56:53.352Z,72.80
2022-08-28T17:59:21.773Z,74.40
2022-08-28T18:01:49.963Z,74.90
2022-08-28T18:04:24.198Z,75.30
2022-08-28T18:06:54.603Z,75.70
2022-08-28T18:09:23.574Z,76.30
2022-08-28T18:11:51.854Z,76.70
2022-08-28T18:14:18.935Z,77.10
2022-08-28T18:16:46.035Z,77.40
2022-08-28T18:19:13.764Z,77.50
2022-08-28T18:21:41.236Z,77.70
2022-08-28T18:24:10.141Z,78.00
2022-08-28T18:26:37.125Z,78.70
2022-08-28T18:29:04.364Z,78.50
2022-08-28T18:31:31.434Z,78.90
2022-08-28T18:33:58.566Z,79.00
2022-08-28T18:36:25.728Z,79.20
2022-08-28T18:38:52.756Z,79.40
2022-08-28T18:41:20.438Z,79.50
2022-08-28T18:43:48.121Z,79.70
2022-08-28T18:46:15.760Z,79.80
2022-08-28T18:48:43.107Z,79.90
2022-08-28T18:51:12.683Z,80.00
2022-08-28T18:53:43.312Z,79.90
2022-08-28T18:56:12.139Z,80.30
2022-08-28T18:58:40.984Z,78.20
2022-08-28T19:01:09.333Z,80.60
2022-08-28T19:03:36.875Z,81.00
2022-08-28T19:06:06.158Z,81.20
2022-08-28T19:08:33.232Z,81.70
2022-08-28T19:11:00.134Z,82.00
2022-08-28T19:13:27.861Z,82.20
2022-08-28T19:15:55.068Z,82.30
2022-08-28T19:18:22.127Z,82.20
2022-08-28T19:20:49.009Z,82.30
2022-08-28T19:23:17.916Z,82.30
2022-08-28T19:25:45.831Z,82.50
2022-08-28T19:28:13.795Z,82.60
2022-08-28T19:30:41.152Z,82.70
2022-08-28T19:33:08.129Z,82.80
2022-08-28T19:35:35.084Z,82.70
2022-08-28T19:38:02.400Z,82.70
2022-08-28T19:40:30.408Z,82.80
2022-08-28T19:42:57.420Z,82.80
2022-08-28T19:45:24.302Z,82.90
2022-08-28T19:47:52.202Z,82.80
2022-08-28T19:50:20.062Z,82.70
2022-08-28T19:52:47.333Z,82.50
2022-08-28T19:55:25.657Z,82.40
2022-08-28T19:57:52.953Z,81.40
2022-08-28T20:00:26.386Z,82.50
2022-08-28T20:02:53.438Z,82.40
2022-08-28T20:05:21.716Z,82.60
2022-08-28T20:07:49.109Z,82.40
2022-08-28T20:10:17.369Z,82.40
2022-08-28T20:12:48.101Z,82.30
2022-08-28T20:15:19.761Z,82.40
2022-08-28T20:17:49.659Z,82.20
2022-08-28T20:20:23.781Z,82.30
2022-08-28T20:22:54.249Z,81.50
2022-08-28T20:25:22.028Z,82.30
2022-08-28T20:27:49.014Z,82.40
2022-08-28T20:30:17.112Z,82.50
2022-08-28T20:32:43.971Z,82.60
2022-08-28T20:35:13.611Z,82.70
2022-08-28T20:37:44.632Z,82.50
2022-08-28T20:40:18.116Z,82.60
2022-08-28T20:42:46.106Z,82.20
2022-08-28T20:45:15.135Z,82.10
2022-08-28T20:47:42.436Z,82.00
2022-08-28T20:50:10.811Z,82.00
2022-08-28T20:52:38.670Z,81.90
2022-08-28T20:55:07.976Z,81.80
2022-08-28T20:57:36.384Z,81.70
2022-08-28T21:00:09.138Z,81.70
2022-08-28T21:02:37.386Z,81.60
2022-08-28T21:05:05.869Z,81.70
2022-08-28T21:07:34.773Z,81.70
2022-08-28T21:10:07.249Z,81.70
2022-08-28T21:12:39.963Z,81.70
2022-08-28T21:15:11.125Z,81.20
2022-08-28T21:17:39.543Z,81.60
2022-08-28T21:20:12.469Z,81.80
2022-08-28T21:22:40.392Z,81.70
2022-08-28T21:25:10.445Z,82.00
2022-08-28T21:27:37.982Z,81.90
2022-08-28T21:30:06.811Z,82.00
2022-08-28T21:32:34.636Z,82.00
2022-08-28T21:35:04.045Z,82.00
2022-08-28T21:37:31.270Z,82.10
2022-08-28T21:39:59.557Z,82.10
2022-08-28T21:42:27.787Z,82.00
2022-08-28T21:44:54.937Z,82.10
2022-08-28T21:47:24.197Z,82.10
2022-08-28T21:49:54.352Z,82.00
2022-08-28T21:52:24.126Z,82.00
2022-08-28T21:54:56.715Z,82.00
2022-08-28T21:57:24.019Z,82.00
2022-08-28T21:59:50.902Z,82.10
2022-08-28T22:02:17.809Z,82.00
2022-08-28T22:04:44.733Z,81.90
2022-08-28T22:07:12.038Z,81.80
2022-08-28T22:09:39.008Z,81.90
2022-08-28T22:12:06.370Z,81.90
2022-08-28T22:14:33.244Z,82.00
2022-08-28T22:17:00.132Z,81.90
2022-08-28T22:19:27.077Z,81.80
2022-08-28T22:22:13.424Z,81.90
2022-08-28T22:24:40.296Z,81.80
2022-08-28T22:27:07.701Z,81.90
2022-08-28T22:29:36.609Z,81.90
2022-08-28T22:32:06.402Z,81.90
2022-08-28T22:34:41.470Z,81.90
2022-08-28T22:37:11.404Z,81.40
2022-08-28T22:39:39.818Z,81.90
2022-08-28T22:42:07.632Z,81.90
2022-08-28T22:44:34.915Z,81.80
2022-08-28T22:47:02.213Z,81.80
2022-08-28T22:49:29.432Z,81.90
2022-08-28T22:51:56.357Z,82.00
2022-08-28T22:54:23.403Z,82.00
2022-08-28T22:56:50.278Z,82.00
2022-08-28T22:59:17.156Z,82.00
2022-08-28T23:01:44.090Z,82.60
2022-08-28T23:04:11.630Z,82.20
2022-08-28T23:06:40.255Z,82.10
2022-08-28T23:09:11.354Z,82.10
2022-08-28T23:11:38.458Z,82.10
2022-08-28T23:14:06.069Z,82.20
2022-08-28T23:16:35.146Z,82.20
2022-08-28T23:19:13.052Z,82.20
2022-08-28T23:21:43.764Z,82.10
2022-08-28T23:24:16.039Z,82.00
2022-08-28T23:26:45.257Z,82.10
2022-08-28T23:29:13.752Z,82.10
2022-08-28T23:31:41.043Z,82.50
2022-08-28T23:34:08.756Z,82.00
2022-08-28T23:36:36.757Z,82.00
2022-08-28T23:39:06.813Z,82.10
2022-08-28T23:41:33.939Z,82.10
2022-08-28T23:44:04.177Z,82.00
2022-08-28T23:46:34.980Z,82.10
2022-08-28T23:49:02.886Z,82.00
2022-08-28T23:51:29.743Z,82.00
2022-08-28T23:53:56.734Z,81.90
2022-08-28T23:56:24.000Z,81.90
2022-08-28T23:58:55.353Z,81.90
